createdAt,value
2018-06-13T00:01:18.871Z,16.40
2018-06-13T00:03:47.120Z,16.30
2018-06-13T00:06:15.363Z,16.30
2018-06-13T00:08:43.600Z,16.30
2018-06-13T00:13:39.888Z,16.10
2018-06-13T00:16:08.128Z,16.10
2018-06-13T00:18:36.425Z,16.10
2018-06-13T00:21:04.683Z,16.10
2018-06-13T00:23:32.920Z,16.10
2018-06-13T00:26:01.177Z,16.10
2018-06-13T00:28:29.412Z,16.10
2018-06-13T00:30:57.680Z,16.10
2018-06-13T00:33:25.919Z,16.10
2018-06-13T00:35:54.166Z,16.10
2018-06-13T00:38:22.383Z,16.10
2018-06-13T00:40:50.651Z,16.10
2018-06-13T00:45:46.905Z,16.10
2018-06-13T00:48:15.158Z,16.20
2018-06-13T00:50:43.379Z,16.20
2018-06-13T00:53:11.628Z,16.20
2018-06-13T00:55:50.792Z,16.20
2018-06-13T00:58:19.037Z,16.30
2018-06-13T01:00:47.268Z,16.30
2018-06-13T01:03:15.500Z,16.20
2018-06-13T01:05:43.750Z,16.20
2018-06-13T01:08:12.008Z,16.30
2018-06-13T01:10:40.238Z,16.20
2018-06-13T01:13:08.472Z,16.20
2018-06-13T01:18:04.843Z,16.20
2018-06-13T01:20:33.076Z,16.20
2018-06-13T01:23:01.322Z,16.20
2018-06-13T01:25:29.539Z,16.20
2018-06-13T01:27:57.792Z,16.20
2018-06-13T01:30:26.052Z,16.20
2018-06-13T01:32:54.303Z,16.20
2018-06-13T01:35:22.527Z,16.20
2018-06-13T01:37:50.792Z,16.20
2018-06-13T01:40:19.014Z,16.20
2018-06-13T01:42:47.257Z,16.20
2018-06-13T01:45:15.510Z,16.10
2018-06-13T01:47:43.765Z,16.10
2018-06-13T01:50:12.001Z,16.10
2018-06-13T01:52:40.287Z,16.10
2018-06-13T01:55:08.532Z,16.20
2018-06-13T01:57:36.782Z,16.20
2018-06-13T02:00:05.360Z,16.10
2018-06-13T02:02:33.598Z,16.10
2018-06-13T02:05:01.869Z,16.00
2018-06-13T02:07:30.112Z,16.10
2018-06-13T02:09:58.361Z,16.10
2018-06-13T02:12:26.570Z,16.10
2018-06-13T02:14:54.811Z,16.10
2018-06-13T02:17:23.044Z,16.20
2018-06-13T02:19:51.316Z,16.10
2018-06-13T02:22:19.557Z,16.10
2018-06-13T02:24:47.799Z,16.00
2018-06-13T02:27:16.033Z,16.00
2018-06-13T02:29:44.284Z,16.00
2018-06-13T02:32:12.495Z,15.90
2018-06-13T02:34:40.782Z,15.90
2018-06-13T02:37:09.011Z,15.90
2018-06-13T02:42:05.346Z,15.90
2018-06-13T02:44:33.587Z,15.90
2018-06-13T02:47:01.823Z,15.80
2018-06-13T02:49:30.076Z,15.80
2018-06-13T02:51:58.334Z,15.80
2018-06-13T02:54:26.577Z,15.80
2018-06-13T02:56:54.869Z,15.70
2018-06-13T02:59:23.110Z,15.80
2018-06-13T03:01:51.334Z,15.70
2018-06-13T03:04:19.624Z,15.70
2018-06-13T03:09:15.867Z,15.70
2018-06-13T03:11:44.114Z,15.70
2018-06-13T03:14:12.394Z,15.80
2018-06-13T03:16:40.707Z,15.80
2018-06-13T03:19:08.966Z,15.70
2018-06-13T03:24:05.293Z,15.80
2018-06-13T03:26:33.560Z,15.80
2018-06-13T03:29:01.818Z,15.80
2018-06-13T03:31:30.095Z,15.80
2018-06-13T03:33:58.321Z,15.90
2018-06-13T03:36:26.563Z,15.90
2018-06-13T03:38:54.783Z,15.90
2018-06-13T03:41:23.024Z,15.90
2018-06-13T03:43:51.247Z,15.90
2018-06-13T03:46:19.492Z,16.00
2018-06-13T03:48:47.718Z,16.00
2018-06-13T03:51:16.003Z,16.10
2018-06-13T03:53:44.241Z,16.10
2018-06-13T03:56:12.495Z,16.20
2018-06-13T03:58:40.718Z,16.30
2018-06-13T04:01:08.951Z,16.30
2018-06-13T04:03:38.137Z,16.30
2018-06-13T04:06:06.589Z,16.40
2018-06-13T04:08:34.827Z,16.40
2018-06-13T04:11:03.104Z,16.50
2018-06-13T04:13:31.349Z,16.50
2018-06-13T04:15:59.598Z,16.50
2018-06-13T04:18:28.012Z,16.50
2018-06-13T04:20:56.239Z,16.50
2018-06-13T04:25:52.443Z,16.50
2018-06-13T04:28:20.655Z,16.60
2018-06-13T04:30:48.843Z,16.60
2018-06-13T04:35:45.031Z,16.80
2018-06-13T04:38:13.266Z,16.80
2018-06-13T04:40:41.493Z,16.80
2018-06-13T04:43:09.703Z,16.80
2018-06-13T04:45:37.952Z,16.70
2018-06-13T04:48:06.391Z,16.70
2018-06-13T04:50:34.595Z,16.60
2018-06-13T04:53:02.840Z,16.70
2018-06-13T04:55:31.058Z,16.70
2018-06-13T04:57:59.302Z,16.70
2018-06-13T05:00:27.499Z,16.70
2018-06-13T05:02:55.750Z,16.70
2018-06-13T05:05:23.986Z,16.70
2018-06-13T05:07:52.567Z,16.70
2018-06-13T05:10:20.786Z,16.70
2018-06-13T05:12:49.115Z,16.80
2018-06-13T05:17:45.388Z,16.90
2018-06-13T05:20:13.634Z,17.00
2018-06-13T05:22:41.891Z,17.00
2018-06-13T05:25:10.088Z,17.10
2018-06-13T05:27:38.297Z,17.20
2018-06-13T05:30:06.568Z,17.20
2018-06-13T05:32:34.769Z,17.20
2018-06-13T05:35:03.851Z,17.20
2018-06-13T05:37:32.105Z,17.30
2018-06-13T05:40:00.428Z,17.30
2018-06-13T05:42:28.712Z,17.30
2018-06-13T05:47:24.910Z,17.20
2018-06-13T05:49:53.123Z,17.20
2018-06-13T05:52:21.335Z,17.20
2018-06-13T05:54:49.661Z,17.20
2018-06-13T05:57:17.856Z,17.20
2018-06-13T05:59:46.079Z,17.10
2018-06-13T06:02:16.160Z,17.10
2018-06-13T06:04:44.512Z,17.10
2018-06-13T06:07:12.743Z,17.10
2018-06-13T06:09:40.977Z,17.00
2018-06-13T06:12:09.245Z,17.00
2018-06-13T06:14:37.491Z,17.00
2018-06-13T06:17:05.828Z,16.90
2018-06-13T06:19:34.148Z,16.80
2018-06-13T06:22:02.369Z,16.80
2018-06-13T06:24:31.336Z,16.80
2018-06-13T06:26:59.597Z,16.80
2018-06-13T06:29:27.819Z,16.70
2018-06-13T06:31:56.323Z,16.70
2018-06-13T06:34:24.538Z,16.60
2018-06-13T06:36:52.775Z,16.60
2018-06-13T06:39:21.012Z,16.70
2018-06-13T06:41:49.243Z,16.80
2018-06-13T06:44:17.464Z,16.90
2018-06-13T06:46:45.686Z,17.10
2018-06-13T06:49:13.890Z,17.30
2018-06-13T06:51:42.159Z,17.60
2018-06-13T06:54:10.587Z,17.90
2018-06-13T06:56:38.859Z,17.90
2018-06-13T06:59:07.074Z,17.80
2018-06-13T07:01:35.649Z,17.70
2018-06-13T07:04:03.872Z,17.70
2018-06-13T07:06:32.103Z,17.80
2018-06-13T07:09:00.311Z,17.90
2018-06-13T07:11:28.520Z,18.00
2018-06-13T07:13:56.732Z,18.30
2018-06-13T07:16:25.053Z,18.40
2018-06-13T07:18:53.269Z,18.60
2018-06-13T07:23:49.690Z,19.00
2018-06-13T07:26:17.888Z,19.30
2018-06-13T07:28:46.224Z,19.60
2018-06-13T07:31:14.427Z,19.90
2018-06-13T07:33:42.683Z,20.10
2018-06-13T07:36:10.903Z,20.10
2018-06-13T07:38:39.115Z,20.10
2018-06-13T07:41:07.331Z,20.00
2018-06-13T07:43:35.574Z,20.10
2018-06-13T07:46:04.617Z,20.30
2018-06-13T07:48:32.823Z,20.80
2018-06-13T07:51:01.264Z,21.00
2018-06-13T07:55:57.465Z,21.80
2018-06-13T07:58:25.677Z,23.50
2018-06-13T08:00:53.889Z,25.20
2018-06-13T08:03:22.112Z,25.50
2018-06-13T08:05:50.336Z,24.60
2018-06-13T08:08:18.575Z,23.30
2018-06-13T08:10:46.774Z,22.10
2018-06-13T08:13:15.008Z,20.80
2018-06-13T08:15:43.214Z,20.10
2018-06-13T08:18:11.517Z,19.70
2018-06-13T08:20:39.716Z,19.50
2018-06-13T08:23:07.971Z,19.50
2018-06-13T08:25:36.169Z,19.50
2018-06-13T08:28:04.415Z,19.60
2018-06-13T08:30:32.633Z,19.60
2018-06-13T08:33:00.886Z,19.80
2018-06-13T08:35:29.110Z,20.00
2018-06-13T08:37:57.334Z,20.50
2018-06-13T08:40:25.551Z,21.00
2018-06-13T08:42:53.746Z,21.40
2018-06-13T08:45:21.966Z,21.60
2018-06-13T08:47:50.202Z,21.90
2018-06-13T08:50:18.415Z,21.90
2018-06-13T08:52:46.621Z,21.90
2018-06-13T08:55:14.831Z,22.00
2018-06-13T08:57:43.070Z,22.00
2018-06-13T09:00:11.285Z,21.90
2018-06-13T09:02:39.511Z,22.00
2018-06-13T09:05:07.755Z,23.20
2018-06-13T09:07:35.977Z,25.20
2018-06-13T09:10:04.237Z,27.10
2018-06-13T09:12:32.439Z,28.60
2018-06-13T09:15:00.695Z,28.40
2018-06-13T09:17:28.887Z,26.70
2018-06-13T09:19:57.152Z,25.00
2018-06-13T09:22:25.375Z,23.40
2018-06-13T09:24:53.601Z,22.40
2018-06-13T09:27:21.800Z,21.60
2018-06-13T09:29:50.019Z,21.30
2018-06-13T09:32:18.231Z,21.20
2018-06-13T09:34:46.467Z,21.30
2018-06-13T09:37:14.683Z,21.50
2018-06-13T09:39:42.941Z,21.60
2018-06-13T09:42:11.147Z,21.50
2018-06-13T09:44:39.390Z,21.50
2018-06-13T09:47:15.131Z,21.70
2018-06-13T09:49:35.919Z,21.90
2018-06-13T09:52:04.189Z,21.90
2018-06-13T09:54:32.394Z,21.90
2018-06-13T09:57:00.635Z,22.00
2018-06-13T09:59:34.073Z,22.00
2018-06-13T10:02:07.697Z,22.50
2018-06-13T10:04:35.950Z,22.90
2018-06-13T10:07:04.178Z,23.30
2018-06-13T10:12:00.528Z,23.40
2018-06-13T10:14:28.816Z,23.30
2018-06-13T10:16:57.048Z,22.90
2018-06-13T10:19:25.249Z,23.30
2018-06-13T10:21:53.473Z,24.00
2018-06-13T10:24:21.712Z,24.30
2018-06-13T10:26:49.943Z,24.20
2018-06-13T10:29:18.156Z,23.90
2018-06-13T10:31:46.429Z,23.70
2018-06-13T10:34:14.691Z,23.70
2018-06-13T10:36:42.871Z,23.90
2018-06-13T10:39:11.117Z,24.10
2018-06-13T10:41:39.371Z,23.80
2018-06-13T10:44:07.609Z,23.60
2018-06-13T10:46:35.807Z,23.60
2018-06-13T10:49:04.084Z,23.60
2018-06-13T10:51:32.313Z,23.30
2018-06-13T10:54:00.546Z,23.00
2018-06-13T10:56:28.785Z,23.10
2018-06-13T10:58:56.992Z,23.30
2018-06-13T11:01:25.207Z,23.30
2018-06-13T11:03:54.160Z,23.40
2018-06-13T11:06:22.379Z,23.40
2018-06-13T11:08:50.708Z,23.20
2018-06-13T11:11:19.073Z,22.80
2018-06-13T11:13:47.310Z,22.40
2018-06-13T11:16:15.517Z,22.10
2018-06-13T11:18:43.796Z,21.60
2018-06-13T11:21:12.007Z,21.10
2018-06-13T11:23:40.256Z,20.90
2018-06-13T11:26:08.478Z,20.70
2018-06-13T11:28:36.740Z,20.50
2018-06-13T11:31:04.974Z,20.40
2018-06-13T11:33:33.224Z,20.00
2018-06-13T11:36:01.435Z,19.80
2018-06-13T11:38:29.630Z,19.50
2018-06-13T11:40:57.840Z,19.10
2018-06-13T11:43:26.081Z,18.80
2018-06-13T11:45:54.347Z,18.70
2018-06-13T11:48:22.519Z,18.60
2018-06-13T11:50:50.758Z,18.40
2018-06-13T11:53:18.984Z,18.30
2018-06-13T11:55:47.237Z,18.30
2018-06-13T12:00:43.469Z,18.30
2018-06-13T12:03:11.742Z,18.40
2018-06-13T12:05:40.060Z,18.40
2018-06-13T12:08:08.302Z,18.30
2018-06-13T12:10:36.536Z,18.20
2018-06-13T12:13:04.775Z,18.10
2018-06-13T12:15:33.016Z,18.30
2018-06-13T12:18:01.249Z,18.50
2018-06-13T12:20:31.084Z,18.50
2018-06-13T12:22:59.308Z,18.50
2018-06-13T12:25:27.529Z,18.50
2018-06-13T12:27:55.741Z,18.50
2018-06-13T12:30:23.985Z,18.50
2018-06-13T12:32:52.196Z,18.50
2018-06-13T12:35:20.430Z,18.60
2018-06-13T12:37:48.705Z,18.80
2018-06-13T12:40:17.021Z,19.10
2018-06-13T12:42:45.657Z,19.30
2018-06-13T12:45:13.863Z,19.40
2018-06-13T12:47:42.113Z,19.60
2018-06-13T12:50:10.324Z,19.80
2018-06-13T12:55:06.635Z,20.30
2018-06-13T12:57:34.902Z,20.50
2018-06-13T13:00:03.099Z,20.40
2018-06-13T13:02:31.397Z,20.40
2018-06-13T13:04:59.656Z,20.50
2018-06-13T13:07:27.872Z,20.40
2018-06-13T13:09:56.097Z,20.20
2018-06-13T13:12:24.340Z,20.00
2018-06-13T13:14:52.654Z,19.60
2018-06-13T13:17:21.321Z,19.30
2018-06-13T13:19:49.571Z,19.20
2018-06-13T13:22:17.888Z,19.10
2018-06-13T13:24:46.157Z,19.00
2018-06-13T13:27:14.501Z,19.00
2018-06-13T13:29:42.783Z,19.00
2018-06-13T13:32:11.111Z,19.00
2018-06-13T13:34:39.323Z,19.20
2018-06-13T13:37:07.602Z,19.40
2018-06-13T13:39:35.864Z,19.50
2018-06-13T13:42:04.110Z,19.70
2018-06-13T13:47:00.371Z,19.70
2018-06-13T13:49:28.563Z,19.70
2018-06-13T13:51:56.835Z,19.60
2018-06-13T13:54:25.110Z,19.50
2018-06-13T13:56:53.376Z,19.70
2018-06-13T13:59:21.588Z,19.60
2018-06-13T14:01:49.842Z,19.40
2018-06-13T14:04:18.114Z,19.30
2018-06-13T14:06:46.353Z,18.90
2018-06-13T14:09:14.571Z,18.70
2018-06-13T14:11:42.839Z,18.40
2018-06-13T14:14:11.122Z,18.30
2018-06-13T14:16:39.407Z,18.10
2018-06-13T14:19:07.627Z,18.00
2018-06-13T14:21:35.843Z,17.90
2018-06-13T14:24:04.065Z,18.00
2018-06-13T14:29:00.329Z,18.30
2018-06-13T14:31:28.566Z,18.50
2018-06-13T14:33:56.783Z,18.80
2018-06-13T14:36:25.007Z,18.90
2018-06-13T14:38:53.238Z,19.00
2018-06-13T14:41:21.475Z,19.20
2018-06-13T14:43:49.726Z,19.20
2018-06-13T14:46:18.075Z,19.10
2018-06-13T14:48:46.291Z,19.00
2018-06-13T14:51:14.508Z,18.80
2018-06-13T14:53:42.744Z,18.60
2018-06-13T14:58:44.323Z,18.60
2018-06-13T15:01:12.515Z,18.80
2018-06-13T15:03:41.475Z,18.90
2018-06-13T15:08:38.035Z,19.10
2018-06-13T15:11:06.583Z,19.20
2018-06-13T15:13:34.954Z,19.30
2018-06-13T15:16:03.239Z,19.30
2018-06-13T15:18:31.463Z,19.20
2018-06-13T15:20:59.710Z,19.20
2018-06-13T15:23:27.991Z,19.20
2018-06-13T15:25:56.231Z,19.20
2018-06-13T15:28:24.471Z,19.10
2018-06-13T15:30:52.696Z,19.10
2018-06-13T15:33:20.920Z,19.00
2018-06-13T15:35:49.223Z,19.00
2018-06-13T15:38:17.427Z,19.00
2018-06-13T15:40:45.647Z,19.00
2018-06-13T15:43:13.896Z,18.90
2018-06-13T15:45:42.178Z,18.60
2018-06-13T15:48:10.394Z,18.50
2018-06-13T15:50:38.620Z,18.40
2018-06-13T15:53:06.834Z,18.30
2018-06-13T15:55:35.086Z,18.30
2018-06-13T15:58:03.333Z,18.20
2018-06-13T16:00:31.594Z,18.10
2018-06-13T16:02:59.811Z,18.10
2018-06-13T16:05:28.050Z,18.00
2018-06-13T16:07:56.259Z,18.00
2018-06-13T16:10:24.471Z,17.90
2018-06-13T16:12:52.720Z,17.90
2018-06-13T16:15:20.950Z,18.00
2018-06-13T16:17:49.200Z,17.90
2018-06-13T16:20:17.452Z,17.90
2018-06-13T16:22:46.089Z,17.90
2018-06-13T16:25:14.679Z,17.80
2018-06-13T16:27:42.918Z,17.80
2018-06-13T16:30:11.128Z,17.70
2018-06-13T16:32:39.342Z,17.70
2018-06-13T16:35:07.542Z,17.70
2018-06-13T16:37:35.764Z,17.80
2018-06-13T16:40:04.042Z,17.90
2018-06-13T16:42:32.663Z,17.90
2018-06-13T16:45:02.463Z,17.90
2018-06-13T16:50:00.242Z,17.90
2018-06-13T16:52:39.900Z,17.90
2018-06-13T16:55:18.033Z,17.90
2018-06-13T16:57:46.289Z,17.90
2018-06-13T17:00:14.492Z,17.90
2018-06-13T17:02:42.727Z,17.90
2018-06-13T17:05:11.003Z,17.90
2018-06-13T17:07:39.233Z,17.80
2018-06-13T17:10:07.457Z,17.90
2018-06-13T17:19:59.857Z,17.80
2018-06-13T17:22:28.071Z,17.90
2018-06-13T17:24:56.587Z,17.80
2018-06-13T17:27:24.828Z,17.80
2018-06-13T17:29:54.403Z,17.70
2018-06-13T17:32:22.779Z,17.80
2018-06-13T17:34:51.021Z,17.80
2018-06-13T17:37:19.291Z,17.80
2018-06-13T17:39:47.524Z,17.80
2018-06-13T17:42:15.727Z,17.70
2018-06-13T17:44:44.055Z,17.70
2018-06-13T17:47:12.380Z,17.70
2018-06-13T17:49:40.604Z,17.70
2018-06-13T17:52:08.946Z,17.70
2018-06-13T17:54:37.195Z,17.60
2018-06-13T17:57:05.615Z,17.60
2018-06-13T17:59:33.897Z,17.50
2018-06-13T18:02:02.103Z,17.50
2018-06-13T18:04:30.360Z,17.50
2018-06-13T18:06:58.585Z,17.50
2018-06-13T18:09:26.861Z,17.50
2018-06-13T18:11:55.037Z,17.40
2018-06-13T18:14:23.294Z,17.50
2018-06-13T18:16:51.504Z,17.50
2018-06-13T18:21:47.782Z,17.30
2018-06-13T18:24:16.023Z,17.30
2018-06-13T18:29:12.229Z,17.20
2018-06-13T18:31:40.476Z,17.10
2018-06-13T18:34:08.767Z,17.20
2018-06-13T18:36:37.055Z,17.10
2018-06-13T18:39:08.087Z,17.10
2018-06-13T18:41:36.415Z,17.10
2018-06-13T18:44:04.875Z,17.10
2018-06-13T18:49:01.083Z,17.00
2018-06-13T18:51:29.310Z,17.00
2018-06-13T18:53:57.552Z,17.00
2018-06-13T18:56:25.788Z,17.00
2018-06-13T18:58:54.009Z,16.90
2018-06-13T19:01:22.247Z,16.90
2018-06-13T19:03:50.539Z,16.90
2018-06-13T19:06:18.752Z,16.90
2018-06-13T19:11:15.035Z,16.80
2018-06-13T19:13:43.236Z,16.80
2018-06-13T19:16:11.470Z,16.80
2018-06-13T19:18:39.663Z,16.80
2018-06-13T19:21:07.911Z,16.70
2018-06-13T19:23:36.111Z,16.70
2018-06-13T19:26:04.341Z,16.70
2018-06-13T19:28:32.539Z,16.70
2018-06-13T19:31:01.422Z,16.70
2018-06-13T19:33:29.635Z,16.70
2018-06-13T19:35:57.882Z,16.70
2018-06-13T19:38:26.114Z,16.70
2018-06-13T19:43:27.697Z,16.60
2018-06-13T19:45:55.935Z,16.50
2018-06-13T19:48:29.464Z,16.60
2018-06-13T19:53:31.146Z,16.50
2018-06-13T19:56:04.944Z,16.50
2018-06-13T19:58:33.684Z,16.50
2018-06-13T20:01:01.907Z,16.50
2018-06-13T20:03:35.697Z,16.50
2018-06-13T20:08:31.983Z,16.40
2018-06-13T20:11:00.307Z,16.40
2018-06-13T20:13:33.860Z,16.40
2018-06-13T20:16:07.439Z,16.40
2018-06-13T20:18:41.064Z,16.40
2018-06-13T20:21:10.409Z,16.40
2018-06-13T20:23:39.021Z,16.40
2018-06-13T20:26:12.578Z,16.30
2018-06-13T20:28:46.149Z,16.30
2018-06-13T20:31:15.909Z,16.30
2018-06-13T20:33:44.197Z,16.30
2018-06-13T20:36:12.409Z,16.30
2018-06-13T20:38:40.643Z,16.30
2018-06-13T20:41:08.898Z,16.30
2018-06-13T20:43:37.134Z,16.40
2018-06-13T20:46:05.500Z,16.30
2018-06-13T20:48:33.997Z,16.30
2018-06-13T20:51:02.257Z,16.30
2018-06-13T20:53:30.494Z,16.30
2018-06-13T20:55:58.779Z,16.30
2018-06-13T20:58:26.994Z,16.30
2018-06-13T21:00:55.219Z,16.20
2018-06-13T21:03:23.501Z,16.30
2018-06-13T21:05:51.741Z,16.20
2018-06-13T21:08:20.402Z,16.20
2018-06-13T21:10:48.616Z,16.20
2018-06-13T21:15:44.856Z,16.30
2018-06-13T21:18:13.072Z,16.20
2018-06-13T21:20:41.305Z,16.20
2018-06-13T21:23:09.643Z,16.20
2018-06-13T21:25:37.867Z,16.20
2018-06-13T21:28:06.210Z,16.20
2018-06-13T21:30:34.451Z,16.20
2018-06-13T21:33:02.664Z,16.20
2018-06-13T21:35:30.901Z,16.20
2018-06-13T21:37:59.098Z,16.30
2018-06-13T21:40:27.339Z,16.30
2018-06-13T21:42:55.555Z,16.30
2018-06-13T21:45:23.897Z,16.40
2018-06-13T21:47:52.171Z,16.30
2018-06-13T21:50:20.398Z,16.30
2018-06-13T21:52:48.615Z,16.30
2018-06-13T21:55:16.837Z,16.30
2018-06-13T21:57:45.084Z,16.30
2018-06-13T22:00:13.325Z,16.30
2018-06-13T22:02:41.559Z,16.20
2018-06-13T22:05:09.859Z,16.20
2018-06-13T22:07:38.095Z,16.20
2018-06-13T22:10:06.356Z,16.20
2018-06-13T22:12:34.661Z,16.20
2018-06-13T22:15:02.905Z,16.20
2018-06-13T22:17:31.116Z,16.20
2018-06-13T22:22:27.335Z,16.20
2018-06-13T22:24:55.556Z,16.30
2018-06-13T22:27:23.780Z,16.30
2018-06-13T22:29:51.975Z,16.30
2018-06-13T22:32:20.217Z,16.30
2018-06-13T22:34:48.423Z,16.30
2018-06-13T22:39:44.647Z,16.30
2018-06-13T22:42:13.683Z,16.30
2018-06-13T22:44:41.928Z,16.40
2018-06-13T22:47:10.148Z,16.40
2018-06-13T22:49:38.370Z,16.40
2018-06-13T22:52:06.648Z,16.30
2018-06-13T22:54:34.855Z,16.30
2018-06-13T22:57:03.083Z,16.30
2018-06-13T22:59:31.536Z,16.30
2018-06-13T23:01:59.760Z,16.30
2018-06-13T23:06:55.988Z,16.20
2018-06-13T23:09:24.215Z,16.20
2018-06-13T23:11:52.455Z,16.20
2018-06-13T23:14:20.659Z,16.20
2018-06-13T23:16:48.869Z,16.20
2018-06-13T23:19:17.155Z,16.30
2018-06-13T23:21:45.376Z,16.20
2018-06-13T23:24:13.658Z,16.20
2018-06-13T23:26:41.897Z,16.20
2018-06-13T23:29:10.107Z,16.10
2018-06-13T23:31:38.290Z,16.10
2018-06-13T23:34:06.515Z,16.10
2018-06-13T23:39:02.763Z,16.10
2018-06-13T23:41:30.976Z,16.10
2018-06-13T23:43:59.203Z,16.10
2018-06-13T23:46:27.414Z,16.10
2018-06-13T23:48:55.664Z,16.10
2018-06-13T23:51:23.875Z,16.00
2018-06-13T23:53:52.106Z,16.00
2018-06-13T23:56:20.377Z,15.90
